Time;durP1;ratioP1;P1;durP2;ratioP2;P2;SDS_P1;SDS_P2;PMS_P1;PMS_P2;Temp;Humidity;BMP_temperature;BMP_pressure;BME280_temperature;BME280_humidity;BME280_pressure;Samples;Min_cycle;Max_cycle;Signal;HPM_P1;HPM_P2
2022/04/20 00:01:16;;;;;;;3.92;2.63;;;;;;;;;;7297830;19;140902;-80
2022/04/20 00:03:43;;;;;;;3.58;2.47;;;;;;;;;;7300412;19;140776;-80
2022/04/20 00:06:10;;;;;;;2.80;2.15;;;;;;;;;;7300068;19;140756;-80
2022/04/20 00:08:37;;;;;;;3.03;2.33;;;;;;;;;;7299243;19;140890;-80
2022/04/20 00:11:04;;;;;;;3.70;2.40;;;;;;;;;;7300308;19;140699;-81
2022/04/20 00:13:31;;;;;;;3.17;2.38;;;;;;;;;;7298566;19;140769;-81
2022/04/20 00:15:59;;;;;;;4.00;2.80;;;;;;;;;;7299559;19;141074;-81
2022/04/20 00:18:26;;;;;;;3.10;2.22;;;;;;;;;;7299289;19;141418;-82
2022/04/20 00:20:53;;;;;;;2.63;2.20;;;;;;;;;;7297393;19;141923;-81
2022/04/20 00:23:20;;;;;;;2.83;2.28;;;;;;;;;;7298749;19;140741;-81
2022/04/20 00:25:47;;;;;;;2.88;2.22;;;;;;;;;;7299348;19;140680;-81
2022/04/20 00:28:14;;;;;;;2.65;2.08;;;;;;;;;;7298773;19;141357;-80
2022/04/20 00:30:41;;;;;;;2.95;2.13;;;;;;;;;;7298704;19;142571;-80
2022/04/20 00:33:08;;;;;;;2.33;2.08;;;;;;;;;;7298892;19;140612;-80
2022/04/20 00:35:35;;;;;;;3.63;2.30;;;;;;;;;;7299230;19;141240;-80
2022/04/20 00:38:05;;;;;;;2.53;1.90;;;;;;;;;;7297978;19;142166;-80
2022/04/20 00:40:32;;;;;;;4.07;2.17;;;;;;;;;;7298688;19;141609;-80
2022/04/20 00:42:59;;;;;;;2.70;1.92;;;;;;;;;;7298618;19;140693;-79
2022/04/20 00:45:28;;;;;;;3.08;2.10;;;;;;;;;;7299313;19;140640;-80
2022/04/20 00:47:58;;;;;;;2.97;2.13;;;;;;;;;;7298499;19;141394;-80
2022/04/20 00:50:25;;;;;;;2.83;2.17;;;;;;;;;;7297907;19;141752;-80
2022/04/20 00:52:52;;;;;;;2.42;1.85;;;;;;;;;;7298455;19;140509;-80
2022/04/20 00:55:27;;;;;;;2.97;2.03;;;;;;;;;;7297716;19;140713;-80
2022/04/20 00:57:54;;;;;;;2.25;1.90;;;;;;;;;;7297255;19;140879;-79
2022/04/20 01:00:21;;;;;;;2.75;2.17;;;;;;;;;;7298215;19;141838;-80
2022/04/20 01:02:48;;;;;;;2.17;1.80;;;;;;;;;;7298715;19;140581;-79
2022/04/20 01:05:16;;;;;;;3.15;1.73;;;;;;;;;;7298605;19;141350;-80
2022/04/20 01:07:43;;;;;;;2.22;1.70;;;;;;;;;;7297134;19;141415;-80
2022/04/20 01:10:10;;;;;;;2.03;1.70;;;;;;;;;;7297570;19;141963;-80
2022/04/20 01:12:38;;;;;;;2.97;2.17;;;;;;;;;;7296406;19;140578;-80
2022/04/20 01:15:05;;;;;;;2.15;1.80;;;;;;;;;;7298265;19;140833;-81
2022/04/20 01:17:32;;;;;;;3.92;1.85;;;;;;;;;;7298341;19;140561;-80
2022/04/20 01:19:59;;;;;;;2.25;1.73;;;;;;;;;;7297082;19;141887;-79
2022/04/20 01:22:26;;;;;;;1.83;1.67;;;;;;;;;;7296886;19;140624;-80
2022/04/20 01:24:54;;;;;;;2.50;2.00;;;;;;;;;;7297224;19;140654;-80
2022/04/20 01:27:21;;;;;;;3.00;1.65;;;;;;;;;;7298194;19;142232;-80
2022/04/20 01:29:48;;;;;;;2.45;1.70;;;;;;;;;;7297744;19;142559;-80
2022/04/20 01:32:15;;;;;;;2.63;1.80;;;;;;;;;;7298484;19;141154;-80
2022/04/20 01:34:43;;;;;;;2.58;1.80;;;;;;;;;;7297565;19;140787;-80
2022/04/20 01:37:10;;;;;;;2.50;1.80;;;;;;;;;;7295807;19;140669;-81
2022/04/20 01:39:37;;;;;;;2.35;1.50;;;;;;;;;;7295047;19;143084;-81
2022/04/20 01:42:06;;;;;;;2.38;1.70;;;;;;;;;;7296776;19;140963;-81
2022/04/20 01:44:34;;;;;;;3.53;1.60;;;;;;;;;;7300272;19;140761;-81
2022/04/20 01:47:01;;;;;;;2.00;1.60;;;;;;;;;;7303524;19;141419;-82
2022/04/20 01:49:28;;;;;;;2.38;1.50;;;;;;;;;;7302514;19;142033;-81
2022/04/20 01:51:55;;;;;;;1.88;1.48;;;;;;;;;;7304612;19;140734;-81
2022/04/20 01:54:22;;;;;;;2.17;1.50;;;;;;;;;;7302083;19;140721;-81
2022/04/20 01:56:50;;;;;;;1.83;1.55;;;;;;;;;;7304182;19;141314;-81
2022/04/20 01:59:17;;;;;;;1.45;1.30;;;;;;;;;;7302623;19;140737;-80
2022/04/20 02:04:31;;;;;;;1.75;1.48;;;;;;;;;;7304477;19;140525;-80
2022/04/20 02:06:58;;;;;;;1.60;1.30;;;;;;;;;;7302138;19;140833;-80
2022/04/20 02:09:25;;;;;;;2.35;1.52;;;;;;;;;;7302774;19;141866;-80
2022/04/20 02:11:52;;;;;;;2.28;1.58;;;;;;;;;;7304209;19;141688;-80
2022/04/20 02:14:19;;;;;;;2.30;1.40;;;;;;;;;;7303493;19;140798;-80
2022/04/20 02:16:46;;;;;;;2.03;1.40;;;;;;;;;;7303353;19;142133;-80
2022/04/20 02:19:14;;;;;;;1.92;1.50;;;;;;;;;;7301779;19;141311;-80
2022/04/20 02:21:42;;;;;;;3.20;1.30;;;;;;;;;;7303175;19;140707;-80
2022/04/20 02:24:10;;;;;;;1.85;1.30;;;;;;;;;;7302607;19;140900;-80
2022/04/20 02:26:37;;;;;;;2.08;1.40;;;;;;;;;;7300987;19;141324;-80
2022/04/20 02:29:04;;;;;;;2.20;1.20;;;;;;;;;;7303016;19;142101;-80
2022/04/20 02:31:31;;;;;;;1.83;1.20;;;;;;;;;;7302745;19;140582;-80
2022/04/20 02:33:58;;;;;;;1.80;1.40;;;;;;;;;;7302985;19;140687;-80
2022/04/20 02:36:26;;;;;;;2.05;1.60;;;;;;;;;;7300883;19;140707;-81
2022/04/20 02:38:54;;;;;;;1.85;1.38;;;;;;;;;;7301944;19;141884;-81
2022/04/20 02:41:21;;;;;;;1.48;1.08;;;;;;;;;;7302967;19;141258;-81
2022/04/20 02:43:49;;;;;;;2.22;1.40;;;;;;;;;;7300383;19;140738;-81
2022/04/20 02:46:16;;;;;;;1.67;1.30;;;;;;;;;;7300933;19;141182;-81
2022/04/20 02:48:43;;;;;;;1.80;1.50;;;;;;;;;;7302318;19;141255;-80
2022/04/20 02:51:10;;;;;;;1.50;1.30;;;;;;;;;;7301131;19;141426;-81
2022/04/20 02:53:37;;;;;;;1.40;1.15;;;;;;;;;;7312304;19;140429;-81
2022/04/20 02:56:04;;;;;;;1.45;1.10;;;;;;;;;;7327843;19;142013;-81
2022/04/20 02:58:31;;;;;;;2.00;1.27;;;;;;;;;;7328180;19;140807;-81
2022/04/20 03:00:58;;;;;;;1.92;1.38;;;;;;;;;;7302128;19;140693;-81
2022/04/20 03:03:26;;;;;;;1.45;1.30;;;;;;;;;;7301540;19;140724;-81
2022/04/20 03:05:53;;;;;;;1.60;1.10;;;;;;;;;;7301878;19;141569;-81
2022/04/20 03:08:21;;;;;;;1.58;1.20;;;;;;;;;;7301244;19;140770;-80
2022/04/20 03:10:48;;;;;;;1.58;1.33;;;;;;;;;;7301325;19;140912;-81
2022/04/20 03:13:15;;;;;;;1.33;1.13;;;;;;;;;;7300844;19;140582;-81
2022/04/20 03:15:42;;;;;;;1.55;1.30;;;;;;;;;;7300921;19;141413;-81
2022/04/20 03:18:09;;;;;;;2.20;1.45;;;;;;;;;;7301192;19;141880;-81
2022/04/20 03:20:36;;;;;;;1.58;1.25;;;;;;;;;;7301287;19;140755;-81
2022/04/20 03:23:04;;;;;;;1.42;1.20;;;;;;;;;;7301696;19;140789;-81
2022/04/20 03:25:31;;;;;;;1.13;1.00;;;;;;;;;;7300457;19;141665;-81
2022/04/20 03:27:58;;;;;;;1.50;1.10;;;;;;;;;;7299562;19;141779;-81
2022/04/20 03:30:27;;;;;;;1.77;1.25;;;;;;;;;;7301550;19;140876;-81
2022/04/20 03:32:55;;;;;;;1.10;1.00;;;;;;;;;;7301186;19;141392;-81
2022/04/20 03:35:22;;;;;;;1.10;1.00;;;;;;;;;;7301163;19;141523;-81
2022/04/20 03:37:49;;;;;;;1.30;1.20;;;;;;;;;;7299229;19;142847;-81
2022/04/20 03:40:17;;;;;;;1.38;1.00;;;;;;;;;;7299649;19;140866;-81
2022/04/20 03:42:44;;;;;;;1.10;1.00;;;;;;;;;;7300591;19;143738;-81
2022/04/20 03:45:12;;;;;;;1.15;1.00;;;;;;;;;;7299739;19;141480;-82
2022/04/20 03:47:39;;;;;;;1.13;1.00;;;;;;;;;;7299080;19;142758;-81
2022/04/20 03:50:06;;;;;;;1.52;1.40;;;;;;;;;;7300623;19;140648;-80
2022/04/20 03:52:33;;;;;;;1.30;1.10;;;;;;;;;;7302772;19;140794;-82
2022/04/20 03:55:00;;;;;;;1.17;0.93;;;;;;;;;;7299565;19;142314;-81
2022/04/20 03:57:28;;;;;;;1.60;1.02;;;;;;;;;;7298248;19;143508;-81
2022/04/20 03:59:55;;;;;;;1.13;0.80;;;;;;;;;;7299586;19;140636;-80
2022/04/20 04:02:22;;;;;;;1.48;1.10;;;;;;;;;;7300236;19;141414;-80
2022/04/20 04:04:50;;;;;;;1.30;0.90;;;;;;;;;;7300268;19;140492;-80
2022/04/20 04:07:17;;;;;;;1.73;1.02;;;;;;;;;;7297893;19;142340;-80
2022/04/20 04:09:44;;;;;;;1.00;0.90;;;;;;;;;;7299443;19;140927;-80
2022/04/20 04:12:11;;;;;;;1.45;1.00;;;;;;;;;;7300601;19;140655;-80
2022/04/20 04:14:40;;;;;;;1.90;0.90;;;;;;;;;;7298974;19;142267;-80
2022/04/20 04:17:08;;;;;;;1.13;1.02;;;;;;;;;;7299188;19;140860;-80
2022/04/20 04:19:35;;;;;;;1.08;0.98;;;;;;;;;;7299211;19;140625;-80
2022/04/20 04:22:02;;;;;;;1.10;1.00;;;;;;;;;;7299083;19;140628;-80
2022/04/20 04:24:35;;;;;;;1.25;1.02;;;;;;;;;;7298926;19;141281;-80
2022/04/20 04:27:05;;;;;;;1.20;0.80;;;;;;;;;;7299317;19;142562;-80
2022/04/20 04:29:33;;;;;;;1.15;0.85;;;;;;;;;;7299239;19;140548;-81
2022/04/20 04:32:00;;;;;;;0.82;0.82;;;;;;;;;;7299717;19;140602;-80
2022/04/20 04:34:28;;;;;;;1.58;1.00;;;;;;;;;;7298348;19;141296;-80
2022/04/20 04:36:58;;;;;;;1.10;1.00;;;;;;;;;;7300610;19;141276;-80
2022/04/20 04:39:46;;;;;;;1.35;1.00;;;;;;;;;;7300733;19;141623;-80
2022/04/20 04:42:13;;;;;;;1.30;0.80;;;;;;;;;;7298672;19;140741;-80
2022/04/20 04:44:40;;;;;;;1.10;0.90;;;;;;;;;;7298759;19;140955;-80
2022/04/20 04:49:52;;;;;;;1.08;0.98;;;;;;;;;;7298872;19;140499;-81
2022/04/20 04:52:19;;;;;;;1.20;0.90;;;;;;;;;;7299255;19;140733;-81
2022/04/20 04:54:46;;;;;;;1.17;0.88;;;;;;;;;;7296177;19;141129;-81
2022/04/20 04:57:14;;;;;;;1.65;0.90;;;;;;;;;;7296316;19;141807;-81
2022/04/20 04:59:42;;;;;;;1.00;0.90;;;;;;;;;;7297182;19;140735;-81
2022/04/20 05:02:09;;;;;;;1.02;0.90;;;;;;;;;;7298356;19;140593;-81
2022/04/20 05:04:39;;;;;;;0.82;0.80;;;;;;;;;;7298375;19;140822;-82
2022/04/20 05:07:07;;;;;;;1.73;1.40;;;;;;;;;;7296474;19;141893;-83
2022/04/20 05:09:34;;;;;;;1.00;0.88;;;;;;;;;;7296686;19;140665;-82
2022/04/20 05:12:01;;;;;;;1.55;1.05;;;;;;;;;;7296788;19;140822;-84
2022/04/20 05:14:28;;;;;;;2.00;1.00;;;;;;;;;;7297581;19;140993;-83
2022/04/20 05:16:56;;;;;;;1.20;1.00;;;;;;;;;;7297775;19;140690;-82
2022/04/20 05:19:23;;;;;;;2.28;1.20;;;;;;;;;;7300329;19;140720;-80
2022/04/20 05:21:50;;;;;;;1.30;0.82;;;;;;;;;;7303765;19;140867;-80
2022/04/20 05:24:17;;;;;;;1.17;1.08;;;;;;;;;;7304000;19;142624;-79
2022/04/20 05:26:44;;;;;;;1.20;1.02;;;;;;;;;;7303311;19;142034;-82
2022/04/20 05:29:12;;;;;;;1.48;1.02;;;;;;;;;;7305909;19;141283;-79
2022/04/20 05:31:39;;;;;;;1.92;1.00;;;;;;;;;;7305382;19;140762;-79
2022/04/20 05:34:06;;;;;;;2.10;0.93;;;;;;;;;;7305164;19;141454;-77
2022/04/20 05:42:16;;;;;;;1.80;1.10;;;;;;;;;;7305206;19;140719;-81
2022/04/20 05:44:46;;;;;;;2.08;1.10;;;;;;;;;;7302648;19;141338;-80
2022/04/20 05:47:13;;;;;;;1.40;1.03;;;;;;;;;;7303878;19;142931;-80
2022/04/20 05:49:41;;;;;;;4.97;1.05;;;;;;;;;;7303216;19;141239;-80
2022/04/20 05:52:08;;;;;;;1.42;1.10;;;;;;;;;;7303966;19;140875;-80
2022/04/20 05:54:35;;;;;;;1.42;1.10;;;;;;;;;;7303109;19;141727;-80
2022/04/20 05:57:02;;;;;;;1.35;1.10;;;;;;;;;;7304054;19;142548;-80
2022/04/20 05:59:30;;;;;;;1.88;0.90;;;;;;;;;;7303642;19;140737;-80
2022/04/20 06:01:57;;;;;;;1.85;1.00;;;;;;;;;;7304408;19;140682;-80
2022/04/20 06:04:25;;;;;;;1.35;0.90;;;;;;;;;;7303819;19;141408;-81
2022/04/20 06:06:53;;;;;;;1.45;1.00;;;;;;;;;;7302188;19;140819;-81
2022/04/20 06:09:26;;;;;;;0.90;0.80;;;;;;;;;;7302485;19;140786;-81
2022/04/20 06:11:56;;;;;;;1.42;0.95;;;;;;;;;;7303907;19;140586;-81
2022/04/20 06:14:54;;;;;;;;;;;;;;;;;;;;;
2022/04/20 06:17:23;;;;;;;1.00;0.82;;;;;;;;;;7303409;19;140666;-80
2022/04/20 06:19:51;;;;;;;1.35;0.80;;;;;;;;;;7303445;19;140776;-80
2022/04/20 06:22:48;;;;;;;1.90;1.10;;;;;;;;;;7303256;19;140793;-81
2022/04/20 06:25:19;;;;;;;1.10;1.00;;;;;;;;;;7302730;19;140695;-81
2022/04/20 06:27:46;;;;;;;1.52;0.90;;;;;;;;;;7302923;19;141750;-81
2022/04/20 06:30:13;;;;;;;1.23;0.80;;;;;;;;;;7301918;19;140801;-81
2022/04/20 06:32:43;;;;;;;1.00;0.80;;;;;;;;;;7303240;19;140589;-81
2022/04/20 06:35:20;;;;;;;1.57;0.90;;;;;;;;;;7302762;19;141113;-80
2022/04/20 06:37:48;;;;;;;1.25;0.80;;;;;;;;;;7302567;19;141255;-80
2022/04/20 06:40:16;;;;;;;1.30;1.00;;;;;;;;;;7302307;19;140614;-80
2022/04/20 06:42:43;;;;;;;0.98;0.90;;;;;;;;;;7302100;19;140871;-80
2022/04/20 06:45:11;;;;;;;1.20;0.82;;;;;;;;;;7302454;19;141290;-80
2022/04/20 06:47:38;;;;;;;1.00;0.80;;;;;;;;;;7302074;19;142348;-79
2022/04/20 06:50:06;;;;;;;1.60;1.00;;;;;;;;;;7305872;19;140711;-79
2022/04/20 07:00:54;;;;;;;1.63;0.88;;;;;;;;;;7302205;19;141099;-79
2022/04/20 07:03:21;;;;;;;0.80;0.80;;;;;;;;;;7302261;19;140787;-79
2022/04/20 07:05:50;;;;;;;1.17;0.98;;;;;;;;;;7301540;19;142195;-80
2022/04/20 07:08:18;;;;;;;2.22;0.90;;;;;;;;;;7301897;19;140783;-80
2022/04/20 07:10:47;;;;;;;1.10;0.90;;;;;;;;;;7301619;19;140917;-79
2022/04/20 07:13:16;;;;;;;1.20;0.85;;;;;;;;;;7300640;19;140673;-79
2022/04/20 07:15:44;;;;;;;0.95;0.85;;;;;;;;;;7301263;19;141934;-79
2022/04/20 07:18:12;;;;;;;1.77;0.88;;;;;;;;;;7300089;19;143007;-80
2022/04/20 07:20:40;;;;;;;0.80;0.80;;;;;;;;;;7301826;19;140569;-79
2022/04/20 07:23:08;;;;;;;1.00;0.90;;;;;;;;;;7300936;19;140861;-80
2022/04/20 07:25:38;;;;;;;2.33;0.90;;;;;;;;;;7300639;19;141101;-80
2022/04/20 07:28:06;;;;;;;0.70;0.63;;;;;;;;;;7301139;19;142986;-79
2022/04/20 07:30:35;;;;;;;2.58;0.90;;;;;;;;;;7301354;19;140770;-80
2022/04/20 07:33:03;;;;;;;0.80;0.80;;;;;;;;;;7299605;19;140769;-80
2022/04/20 07:35:30;;;;;;;0.70;0.70;;;;;;;;;;7299506;19;141319;-80
2022/04/20 07:37:58;;;;;;;0.70;0.60;;;;;;;;;;7300572;19;141866;-80
2022/04/20 07:40:25;;;;;;;1.70;0.85;;;;;;;;;;7298938;19;140840;-80
2022/04/20 07:42:56;;;;;;;0.98;0.77;;;;;;;;;;7298195;19;140601;-80
2022/04/20 07:45:27;;;;;;;0.82;0.70;;;;;;;;;;7300498;19;142374;-80
2022/04/20 07:47:57;;;;;;;1.23;0.80;;;;;;;;;;7300805;19;142215;-80
2022/04/20 07:50:25;;;;;;;0.83;0.80;;;;;;;;;;7300478;19;140615;-80
2022/04/20 07:52:57;;;;;;;1.10;0.77;;;;;;;;;;7300510;19;140618;-80
2022/04/20 07:55:28;;;;;;;0.57;0.57;;;;;;;;;;7299485;19;140615;-79
2022/04/20 07:57:57;;;;;;;0.80;0.73;;;;;;;;;;7297652;19;141381;-79
2022/04/20 08:00:26;;;;;;;1.33;0.70;;;;;;;;;;7298775;19;140722;-80
2022/04/20 08:03:16;;;;;;;1.75;0.90;;;;;;;;;;7298701;19;141372;-80
2022/04/20 08:05:49;;;;;;;2.08;0.90;;;;;;;;;;7299799;19;141186;-80
2022/04/20 08:08:19;;;;;;;1.05;0.80;;;;;;;;;;7299974;19;141567;-80
2022/04/20 08:10:47;;;;;;;1.48;0.80;;;;;;;;;;7300614;19;140649;-80
2022/04/20 08:16:00;;;;;;;1.10;0.73;;;;;;;;;;7299132;19;141281;-80
2022/04/20 08:18:27;;;;;;;1.23;0.80;;;;;;;;;;7298792;19;142490;-80
2022/04/20 08:20:54;;;;;;;1.52;1.17;;;;;;;;;;7299507;19;141327;-80
2022/04/20 08:23:22;;;;;;;1.55;0.85;;;;;;;;;;7298826;19;140839;-80
2022/04/20 08:25:49;;;;;;;1.95;0.80;;;;;;;;;;7298270;19;141384;-80
2022/04/20 08:28:16;;;;;;;1.13;0.90;;;;;;;;;;7297065;19;142017;-80
2022/04/20 08:30:44;;;;;;;1.70;0.70;;;;;;;;;;7299110;19;140713;-80
2022/04/20 08:33:11;;;;;;;1.67;0.60;;;;;;;;;;7299512;19;140776;-80
2022/04/20 08:35:38;;;;;;;1.63;1.00;;;;;;;;;;7299418;19;141076;-80
2022/04/20 08:38:18;;;;;;;2.10;0.70;;;;;;;;;;7298744;19;142933;-80
2022/04/20 08:41:00;;;;;;;1.20;0.55;;;;;;;;;;7296445;19;141252;-80
2022/04/20 08:43:31;;;;;;;2.47;0.90;;;;;;;;;;7298762;19;140893;-81
2022/04/20 08:46:02;;;;;;;1.40;0.90;;;;;;;;;;7298412;19;141219;-80
2022/04/20 08:48:31;;;;;;;1.88;0.80;;;;;;;;;;7296415;19;142077;-81
2022/04/20 08:51:04;;;;;;;0.82;0.65;;;;;;;;;;7298145;19;140954;-80
2022/04/20 08:53:39;;;;;;;1.83;0.90;;;;;;;;;;7298023;19;140697;-81
2022/04/20 08:59:08;;;;;;;1.38;0.80;;;;;;;;;;7304660;19;140675;-81
2022/04/20 09:01:35;;;;;;;0.95;0.80;;;;;;;;;;7296793;19;140687;-81
2022/04/20 09:04:05;;;;;;;1.60;0.80;;;;;;;;;;7296670;19;140759;-81
2022/04/20 09:06:45;;;;;;;1.70;0.93;;;;;;;;;;7298557;19;140715;-81
2022/04/20 09:09:14;;;;;;;2.08;0.90;;;;;;;;;;7297642;19;141891;-80
2022/04/20 09:11:42;;;;;;;1.63;0.80;;;;;;;;;;7297694;19;140527;-80
2022/04/20 09:14:16;;;;;;;2.10;0.80;;;;;;;;;;7297448;19;140562;-81
2022/04/20 09:16:43;;;;;;;2.70;0.90;;;;;;;;;;7295922;19;140525;-80
2022/04/20 09:19:11;;;;;;;1.38;0.73;;;;;;;;;;7297401;19;141835;-81
2022/04/20 09:21:38;;;;;;;2.10;0.80;;;;;;;;;;7297480;19;140541;-81
2022/04/20 09:24:10;;;;;;;1.25;1.00;;;;;;;;;;7296183;19;141339;-81
2022/04/20 09:26:51;;;;;;;0.85;0.82;;;;;;;;;;7296830;19;141866;-81
2022/04/20 09:30:13;;;;;;;2.55;1.00;;;;;;;;;;7297406;19;142045;-81
2022/04/20 09:32:52;;;;;;;2.00;0.60;;;;;;;;;;7295608;19;140662;-80
2022/04/20 09:35:20;;;;;;;1.35;0.77;;;;;;;;;;7297559;19;141400;-80
2022/04/20 09:38:04;;;;;;;1.67;0.70;;;;;;;;;;7296723;19;142131;-80
2022/04/20 09:40:38;;;;;;;0.77;0.55;;;;;;;;;;7297173;19;140742;-81
2022/04/20 09:43:26;;;;;;;1.13;0.70;;;;;;;;;;7295396;19;140853;-81
2022/04/20 09:46:03;;;;;;;1.90;1.10;;;;;;;;;;7297758;19;140520;-81
2022/04/20 09:48:52;;;;;;;1.33;0.73;;;;;;;;;;7296545;19;141328;-81
2022/04/20 09:51:22;;;;;;;1.02;0.60;;;;;;;;;;7295562;19;140869;-80
2022/04/20 09:53:50;;;;;;;1.80;0.90;;;;;;;;;;7297286;19;140844;-82
2022/04/20 09:56:27;;;;;;;1.30;0.70;;;;;;;;;;7295893;19;140512;-80
2022/04/20 09:59:04;;;;;;;1.95;0.90;;;;;;;;;;7295923;19;142068;-79
2022/04/20 10:01:36;;;;;;;1.40;0.70;;;;;;;;;;7296555;19;141315;-80
2022/04/20 10:04:05;;;;;;;2.65;1.00;;;;;;;;;;7295068;19;140714;-80
2022/04/20 10:06:33;;;;;;;1.25;0.88;;;;;;;;;;7300255;19;141259;-80
2022/04/20 10:09:03;;;;;;;1.83;0.93;;;;;;;;;;7302378;19;140525;-81
2022/04/20 10:11:32;;;;;;;2.13;1.02;;;;;;;;;;7302586;19;142578;-79
2022/04/20 10:16:51;;;;;;;1.73;0.77;;;;;;;;;;7306685;19;140784;-79
2022/04/20 10:19:26;;;;;;;1.27;0.70;;;;;;;;;;7303345;19;140865;-80
2022/04/20 10:21:55;;;;;;;1.75;0.95;;;;;;;;;;7302076;19;142231;-79
2022/04/20 10:24:30;;;;;;;2.55;0.80;;;;;;;;;;7301178;19;140715;-80
2022/04/20 10:27:08;;;;;;;0.88;0.77;;;;;;;;;;7301067;19;140798;-80
2022/04/20 10:29:54;;;;;;;1.50;0.80;;;;;;;;;;7302564;19;140958;-81
2022/04/20 10:32:30;;;;;;;1.30;0.70;;;;;;;;;;7301228;19;143401;-81
2022/04/20 10:34:59;;;;;;;2.28;0.77;;;;;;;;;;7303684;19;140671;-81
2022/04/20 10:37:28;;;;;;;1.80;0.90;;;;;;;;;;7301596;19;140853;-81
2022/04/20 10:40:16;;;;;;;2.35;0.90;;;;;;;;;;7300456;19;143210;-81
2022/04/20 10:43:26;;;;;;;3.08;0.90;;;;;;;;;;7302023;19;144794;-79
2022/04/20 10:46:15;;;;;;;1.67;0.73;;;;;;;;;;7302780;19;140743;-81
2022/04/20 10:49:01;;;;;;;1.48;0.70;;;;;;;;;;7301307;19;141353;-79
2022/04/20 10:51:32;;;;;;;1.55;0.90;;;;;;;;;;7300522;19;140784;-79
2022/04/20 10:54:21;;;;;;;1.08;0.90;;;;;;;;;;7301799;19;141269;-79
2022/04/20 10:57:56;;;;;;;1.77;0.68;;;;;;;;;;7302694;19;141325;-79
2022/04/20 11:00:34;;;;;;;2.08;0.82;;;;;;;;;;7300037;19;140552;-79
2022/04/20 11:03:07;;;;;;;1.83;0.80;;;;;;;;;;7299889;19;141378;-79
2022/04/20 11:08:43;;;;;;;2.38;0.80;;;;;;;;;;7302056;19;140531;-79
2022/04/20 11:18:42;;;;;;;1.92;0.70;;;;;;;;;;7301895;19;140708;-79
2022/04/20 11:21:24;;;;;;;1.08;0.50;;;;;;;;;;7300554;19;140687;-78
2022/04/20 11:24:17;;;;;;;;;;;;;;;;;;;;;
2022/04/20 11:27:06;;;;;;;2.97;0.80;;;;;;;;;;7300718;19;141262;-78
2022/04/20 11:29:34;;;;;;;2.10;0.80;;;;;;;;;;7301314;19;140620;-78
2022/04/20 11:32:26;;;;;;;1.48;0.80;;;;;;;;;;7302033;19;141507;-78
2022/04/20 11:35:15;;;;;;;1.60;0.68;;;;;;;;;;7301301;19;141119;-79
2022/04/20 11:37:59;;;;;;;1.08;0.80;;;;;;;;;;7298975;19;141433;-79
2022/04/20 11:40:26;;;;;;;1.17;0.80;;;;;;;;;;7299184;19;141959;-79
2022/04/20 11:43:10;;;;;;;1.30;0.80;;;;;;;;;;7298894;19;140871;-79
2022/04/20 11:46:04;;;;;;;1.30;0.70;;;;;;;;;;7301298;19;140830;-79
2022/04/20 11:49:12;;;;;;;;;;;;;;;;;;;;;
2022/04/20 11:52:15;;;;;;;3.42;0.90;;;;;;;;;;7300428;19;142038;-79
2022/04/20 11:58:11;;;;;;;1.30;0.68;;;;;;;;;;7302564;19;140795;-79
2022/04/20 12:01:17;;;;;;;;;;;;;;;;;;;;;
2022/04/20 12:04:02;;;;;;;2.80;0.90;;;;;;;;;;7298194;19;141036;-79
2022/04/20 12:07:00;;;;;;;1.45;0.77;;;;;;;;;;7297806;19;141515;-79
2022/04/20 12:09:45;;;;;;;2.00;0.90;;;;;;;;;;7299956;19;140981;-78
2022/04/20 12:12:25;;;;;;;2.10;0.90;;;;;;;;;;7298626;19;140891;-79
2022/04/20 12:19:33;;;;;;;1.60;0.90;;;;;;;;;;7292768;19;142773;-79
2022/04/20 12:22:05;;;;;;;1.20;0.80;;;;;;;;;;7298294;19;140803;-79
2022/04/20 12:24:34;;;;;;;2.33;0.90;;;;;;;;;;7298281;19;141327;-79
2022/04/20 12:27:01;;;;;;;0.68;0.65;;;;;;;;;;7295844;19;141343;-80
2022/04/20 12:29:33;;;;;;;2.05;0.90;;;;;;;;;;7296427;19;140720;-79
2022/04/20 12:32:05;;;;;;;1.25;0.85;;;;;;;;;;7297875;19;140835;-79
2022/04/20 12:34:36;;;;;;;2.70;0.90;;;;;;;;;;7297560;19;140581;-79
2022/04/20 12:37:07;;;;;;;1.95;0.88;;;;;;;;;;7297045;19;141389;-77
2022/04/20 12:43:05;;;;;;;1.45;0.73;;;;;;;;;;7295852;19;141343;-78
2022/04/20 12:46:12;;;;;;;0.95;0.70;;;;;;;;;;7301405;19;140760;-78
2022/04/20 12:48:56;;;;;;;1.85;0.80;;;;;;;;;;7294520;19;141506;-78
2022/04/20 12:51:24;;;;;;;1.80;0.80;;;;;;;;;;7295142;19;141560;-78
2022/04/20 12:53:51;;;;;;;2.60;0.90;;;;;;;;;;7294673;19;140754;-78
2022/04/20 13:02:04;;;;;;;1.70;0.77;;;;;;;;;;7295108;19;140828;-79
2022/04/20 13:04:32;;;;;;;2.67;0.70;;;;;;;;;;7295487;19;141422;-79
2022/04/20 13:06:59;;;;;;;1.90;0.73;;;;;;;;;;7294596;19;140727;-79
2022/04/20 13:09:27;;;;;;;3.03;0.80;;;;;;;;;;7294022;19;142330;-79
2022/04/20 13:12:04;;;;;;;0.77;0.57;;;;;;;;;;7294802;19;140649;-80
2022/04/20 13:14:45;;;;;;;2.80;1.00;;;;;;;;;;7299715;19;140699;-80
2022/04/20 13:17:12;;;;;;;1.48;0.90;;;;;;;;;;7296654;19;141067;-80
2022/04/20 13:19:39;;;;;;;2.47;1.20;;;;;;;;;;7296295;19;141399;-81
2022/04/20 13:22:06;;;;;;;1.67;0.90;;;;;;;;;;7298391;19;140729;-80
2022/04/20 13:30:06;;;;;;;1.92;1.40;;;;;;;;;;7297149;19;143157;-80
2022/04/20 13:32:33;;;;;;;2.05;1.35;;;;;;;;;;7297644;19;140496;-80
2022/04/20 13:35:01;;;;;;;2.35;1.55;;;;;;;;;;7296100;19;141178;-80
2022/04/20 13:37:28;;;;;;;2.47;1.38;;;;;;;;;;7296343;19;141370;-80
2022/04/20 13:39:56;;;;;;;3.65;1.70;;;;;;;;;;7297817;19;141936;-80
2022/04/20 13:42:23;;;;;;;2.38;1.45;;;;;;;;;;7302206;19;141061;-80
2022/04/20 13:44:50;;;;;;;3.88;1.88;;;;;;;;;;7304537;19;140718;-80
2022/04/20 13:47:17;;;;;;;3.97;1.85;;;;;;;;;;7303942;19;142022;-80
2022/04/20 13:50:12;;;;;;;3.53;1.90;;;;;;;;;;7300672;19;140870;-80
2022/04/20 13:52:39;;;;;;;4.72;2.40;;;;;;;;;;7304798;19;140765;-80
2022/04/20 13:55:09;;;;;;;4.17;1.90;;;;;;;;;;7302739;19;141408;-81
2022/04/20 13:58:15;;;;;;;4.45;1.95;;;;;;;;;;7303353;19;141781;-80
2022/04/20 14:00:42;;;;;;;4.88;2.10;;;;;;;;;;7301076;19;142699;-79
2022/04/20 14:03:09;;;;;;;3.78;2.22;;;;;;;;;;7303882;19;141087;-80
2022/04/20 14:05:36;;;;;;;6.95;2.50;;;;;;;;;;7301907;19;140589;-79
2022/04/20 14:08:04;;;;;;;4.80;2.17;;;;;;;;;;7303318;19;141699;-77
2022/04/20 14:10:47;;;;;;;2.75;1.98;;;;;;;;;;7302714;19;141705;-77
2022/04/20 14:13:21;;;;;;;2.72;1.90;;;;;;;;;;7302635;19;140567;-77
2022/04/20 14:15:48;;;;;;;4.05;1.95;;;;;;;;;;7302257;19;140817;-86
2022/04/20 14:18:29;;;;;;;4.22;2.53;;;;;;;;;;7302029;19;140760;-79
2022/04/20 14:20:57;;;;;;;3.22;2.15;;;;;;;;;;7302991;19;140885;-81
2022/04/20 14:23:43;;;;;;;;;;;;;;;;;;;;;
2022/04/20 14:33:35;;;;;;;3.53;2.13;;;;;;;;;;7304825;19;141072;-78
2022/04/20 14:36:02;;;;;;;4.45;2.30;;;;;;;;;;7301824;19;140720;-78
2022/04/20 14:40:09;;;;;;;3.75;2.10;;;;;;;;;;7300620;19;143368;-79
2022/04/20 14:42:45;;;;;;;5.18;2.28;;;;;;;;;;7301901;19;141056;-78
2022/04/20 14:45:12;;;;;;;3.45;2.25;;;;;;;;;;7299169;19;141047;-78
2022/04/20 14:47:46;;;;;;;3.80;2.20;;;;;;;;;;7300296;19;140841;-78
2022/04/20 14:50:13;;;;;;;6.20;2.45;;;;;;;;;;7303445;19;140885;-79
2022/04/20 14:53:18;;;;;;;4.30;2.40;;;;;;;;;;7303821;19;141806;-78
2022/04/20 14:56:09;;;;;;;4.60;2.22;;;;;;;;;;7307911;19;140810;-79
2022/04/20 14:58:38;;;;;;;3.00;2.25;;;;;;;;;;7303054;19;140760;-78
2022/04/20 15:01:32;;;;;;;3.90;2.42;;;;;;;;;;7305043;19;140812;-79
2022/04/20 15:04:00;;;;;;;6.13;2.40;;;;;;;;;;7299152;19;141952;-78
2022/04/20 15:06:29;;;;;;;3.83;2.17;;;;;;;;;;7301961;19;142831;-78
2022/04/20 15:09:18;;;;;;;2.60;1.90;;;;;;;;;;7297199;19;141228;-78
2022/04/20 15:11:48;;;;;;;4.18;2.10;;;;;;;;;;7302393;19;140470;-77
2022/04/20 15:14:19;;;;;;;2.78;1.90;;;;;;;;;;7300297;19;140708;-78
2022/04/20 15:16:46;;;;;;;;;;;;;;;;;;7300834;19;140748;-80
2022/04/20 15:20:18;;;;;;;2.85;2.00;;;;;;;;;;7299436;19;140691;-80
2022/04/20 15:26:42;;;;;;;2.95;2.00;;;;;;;;;;7278310;19;142442;-80
2022/04/20 15:29:09;;;;;;;3.22;2.00;;;;;;;;;;7298032;19;140871;-79
2022/04/20 15:31:55;;;;;;;3.88;2.40;;;;;;;;;;7300030;19;140919;-78
2022/04/20 16:02:14;;;;;;;15.52;7.88;;;;;;;;;;7203540;19;145567;31
2022/04/20 16:18:23;;;;;;;14.70;7.60;;;;;;;;;;7297869;19;140838;-78
2022/04/20 16:20:51;;;;;;;14.10;8.00;;;;;;;;;;7299665;19;140834;-78
2022/04/20 16:23:18;;;;;;;12.90;7.72;;;;;;;;;;7297999;19;140824;-78
2022/04/20 16:25:45;;;;;;;12.60;6.82;;;;;;;;;;7298265;19;140548;-78
2022/04/20 16:28:12;;;;;;;11.25;7.15;;;;;;;;;;7296802;19;142572;-78
2022/04/20 16:30:44;;;;;;;13.88;6.95;;;;;;;;;;7295132;19;141324;-78
2022/04/20 16:33:57;;;;;;;12.88;6.82;;;;;;;;;;7297121;19;140902;-79
2022/04/20 16:40:57;;;;;;;11.32;6.47;;;;;;;;;;7300428;19;140646;-78
2022/04/20 16:43:52;;;;;;;10.32;6.15;;;;;;;;;;7296439;19;141270;-78
2022/04/20 16:47:14;;;;;;;11.07;6.25;;;;;;;;;;7296454;19;140973;-78
2022/04/20 16:49:52;;;;;;;13.40;6.70;;;;;;;;;;7293867;19;141116;-77
2022/04/20 16:52:21;;;;;;;10.68;6.15;;;;;;;;;;7294450;19;141351;-77
2022/04/20 16:58:22;;;;;;;8.88;5.70;;;;;;;;;;7271471;19;143820;-78
2022/04/20 17:00:54;;;;;;;8.63;5.53;;;;;;;;;;7294214;19;140734;-78
2022/04/20 17:03:21;;;;;;;10.23;5.60;;;;;;;;;;7297411;19;140625;-78
2022/04/20 17:05:51;;;;;;;8.20;5.60;;;;;;;;;;7296769;19;141326;-78